Time;durP1;ratioP1;P1;durP2;ratioP2;P2;SDS_P1;SDS_P2;PMS_P1;PMS_P2;Temp;Humidity;BMP_temperature;BMP_pressure;BME280_temperature;BME280_humidity;BME280_pressure;Samples;Min_cycle;Max_cycle;Signal;HPM_P1;HPM_P2
2023/01/26 00:00:56;;;;;;;12.90;7.05;;;1.80;84.30;;;;;;5083748;28;20483;-63
2023/01/26 00:03:26;;;;;;;13.27;7.57;;;1.80;84.30;;;;;;5087895;28;20795;-59
2023/01/26 00:05:53;;;;;;;15.98;7.22;;;1.80;84.40;;;;;;5086383;28;20040;-59
2023/01/26 00:08:20;;;;;;;16.17;7.93;;;1.80;84.30;;;;;;5086551;28;20048;-59
2023/01/26 00:10:50;;;;;;;14.82;7.80;;;1.80;84.30;;;;;;5089053;28;20110;-59
2023/01/26 00:13:18;;;;;;;14.27;6.93;;;1.80;84.40;;;;;;5087255;28;20078;-59
2023/01/26 00:15:45;;;;;;;13.15;7.45;;;1.80;84.50;;;;;;5090687;28;20557;-59
2023/01/26 00:18:12;;;;;;;14.90;7.93;;;1.80;84.50;;;;;;5090115;28;20490;-60
2023/01/26 00:20:39;;;;;;;15.30;7.72;;;1.90;84.40;;;;;;5092303;28;20135;-59
2023/01/26 00:23:06;;;;;;;13.43;7.18;;;1.90;84.40;;;;;;5090740;28;20040;-60
2023/01/26 00:25:33;;;;;;;13.80;7.72;;;1.80;84.30;;;;;;5085859;28;20048;-60
2023/01/26 00:28:01;;;;;;;13.02;7.20;;;1.80;84.40;;;;;;5089965;28;20043;-59
2023/01/26 00:30:28;;;;;;;13.57;7.28;;;1.80;84.40;;;;;;5091203;28;20084;-60
2023/01/26 00:32:58;;;;;;;12.03;6.30;;;1.80;84.40;;;;;;5071509;28;20084;-60
2023/01/26 00:35:25;;;;;;;15.65;7.85;;;1.80;84.40;;;;;;5068051;28;20474;-59
2023/01/26 00:37:53;;;;;;;16.05;7.28;;;1.80;84.40;;;;;;5090939;28;20056;-58
2023/01/26 00:40:20;;;;;;;15.70;7.78;;;1.80;84.50;;;;;;5090846;28;20073;-60
2023/01/26 00:42:47;;;;;;;16.58;7.90;;;1.80;84.50;;;;;;5090015;28;20105;-60
2023/01/26 00:45:15;;;;;;;15.20;8.15;;;1.80;84.60;;;;;;5090072;28;20068;-60
2023/01/26 00:47:43;;;;;;;15.75;8.30;;;1.80;84.70;;;;;;5089673;28;20056;-59
2023/01/26 00:50:11;;;;;;;17.10;8.73;;;1.70;84.80;;;;;;5087826;28;21343;-61
2023/01/26 00:52:38;;;;;;;16.15;9.07;;;1.70;84.80;;;;;;5090450;28;20056;-60
2023/01/26 00:55:05;;;;;;;20.40;9.48;;;1.70;84.80;;;;;;5090299;28;20052;-60
2023/01/26 00:57:33;;;;;;;17.30;8.38;;;1.70;85.00;;;;;;5070809;28;20076;-60
2023/01/26 00:59:59;;;;;;;18.98;9.35;;;1.70;84.90;;;;;;5089068;28;20048;-61
2023/01/26 01:02:29;;;;;;;16.92;8.73;;;1.70;85.00;;;;;;5091343;28;20051;-58
2023/01/26 01:04:56;;;;;;;18.73;9.40;;;1.70;84.90;;;;;;5090843;28;20097;-58
2023/01/26 01:07:23;;;;;;;19.05;8.68;;;1.70;84.90;;;;;;5088972;28;20047;-58
2023/01/26 01:09:51;;;;;;;18.50;9.35;;;1.70;85.00;;;;;;5089035;28;20044;-59
2023/01/26 01:12:18;;;;;;;14.88;8.65;;;1.70;85.00;;;;;;5071588;28;20503;-62
2023/01/26 01:14:45;;;;;;;17.42;9.20;;;1.70;85.00;;;;;;5087873;28;20043;-62
2023/01/26 01:17:12;;;;;;;15.93;8.65;;;1.70;85.10;;;;;;5090161;28;20070;-69
2023/01/26 01:19:41;;;;;;;18.42;8.57;;;1.70;85.00;;;;;;5090596;28;20089;-69
2023/01/26 01:22:08;;;;;;;18.40;9.50;;;1.70;85.10;;;;;;5090335;28;20045;-68
2023/01/26 01:24:35;;;;;;;15.48;8.60;;;1.70;85.00;;;;;;5090221;28;20068;-68
2023/01/26 01:27:02;;;;;;;17.38;8.35;;;1.80;85.00;;;;;;5090826;28;20414;-69
2023/01/26 01:29:30;;;;;;;17.73;8.30;;;1.70;85.00;;;;;;5072025;28;20498;-68
2023/01/26 01:31:58;;;;;;;16.08;8.60;;;1.80;85.00;;;;;;5072751;28;20054;-69
2023/01/26 01:34:24;;;;;;;16.25;9.00;;;1.80;84.90;;;;;;5064411;28;22251;-68
2023/01/26 01:36:53;;;;;;;15.10;7.95;;;1.80;85.00;;;;;;5090719;28;20131;-68
2023/01/26 01:39:20;;;;;;;15.18;7.95;;;1.80;84.80;;;;;;5088758;28;20059;-69
2023/01/26 01:41:47;;;;;;;16.77;8.40;;;1.80;84.70;;;;;;5070185;28;20063;-70
2023/01/26 01:44:17;;;;;;;14.38;7.80;;;1.80;84.80;;;;;;5072187;28;20071;-67
2023/01/26 01:46:47;;;;;;;18.23;8.27;;;1.80;84.90;;;;;;5088155;28;20060;-70
2023/01/26 01:49:18;;;;;;;15.88;7.95;;;1.80;84.90;;;;;;5089256;28;20044;-68
2023/01/26 01:51:52;;;;;;;15.73;8.18;;;1.70;85.00;;;;;;5071422;28;20051;-68
2023/01/26 01:54:26;;;;;;;15.18;8.13;;;1.80;85.00;;;;;;5088716;28;20052;-69
2023/01/26 01:56:58;;;;;;;17.65;8.30;;;1.70;85.00;;;;;;5089777;28;20117;-68
2023/01/26 01:59:25;;;;;;;19.90;9.07;;;1.70;85.00;;;;;;5070668;28;20051;-68
2023/01/26 02:01:53;;;;;;;17.30;8.88;;;1.70;85.10;;;;;;5071021;28;20044;-68
2023/01/26 02:04:22;;;;;;;17.38;9.43;;;1.70;85.20;;;;;;5087886;28;20051;-69
2023/01/26 02:06:51;;;;;;;16.63;8.32;;;1.70;85.30;;;;;;5089798;28;20056;-67
2023/01/26 02:12:11;;;;;;;18.70;8.07;;;1.70;85.20;;;;;;5087882;28;20399;-59
2023/01/26 02:14:38;;;;;;;14.25;7.03;;;1.70;85.20;;;;;;5086798;28;20051;-59
2023/01/26 02:17:05;;;;;;;14.20;7.55;;;1.80;85.00;;;;;;5088021;28;20137;-71
2023/01/26 02:19:44;;;;;;;17.40;7.20;;;1.80;84.80;;;;;;5088350;28;20040;-73
2023/01/26 02:22:16;;;;;;;14.35;6.68;;;1.80;84.80;;;;;;5088484;28;20051;-63
2023/01/26 02:24:44;;;;;;;12.40;6.55;;;1.90;84.50;;;;;;5087836;28;20056;-64
2023/01/26 02:27:12;;;;;;;13.32;6.50;;;1.80;84.60;;;;;;5086829;28;20482;-65
2023/01/26 02:29:39;;;;;;;12.43;6.38;;;1.80;84.60;;;;;;5069963;28;20127;-65
2023/01/26 02:32:06;;;;;;;12.88;6.78;;;1.80;84.60;;;;;;5086314;28;20390;-61
2023/01/26 02:34:33;;;;;;;12.48;5.95;;;1.80;84.70;;;;;;5070528;28;20067;-59
2023/01/26 02:37:00;;;;;;;12.00;6.78;;;1.80;84.70;;;;;;5087982;28;20434;-64
2023/01/26 02:39:41;;;;;;;12.50;6.50;;;1.80;84.60;;;;;;5069562;28;20097;-65
2023/01/26 02:44:54;;;;;;;13.85;6.05;;;1.80;84.50;;;;;;5071969;28;20464;-60
2023/01/26 02:47:20;;;;;;;10.20;5.28;;;1.80;84.40;;;;;;5070744;28;20051;-59
2023/01/26 02:49:49;;;;;;;11.75;5.45;;;1.80;84.60;;;;;;5063120;28;20060;-60
2023/01/26 02:52:19;;;;;;;11.88;5.07;;;1.80;84.50;;;;;;5063987;28;20135;-72
2023/01/26 02:57:37;;;;;;;11.55;5.32;;;1.80;84.40;;;;;;5070617;28;20123;-62
2023/01/26 03:00:09;;;;;;;11.57;5.60;;;1.80;84.40;;;;;;5088611;28;20044;-60
2023/01/26 03:02:36;;;;;;;12.73;5.53;;;1.80;84.60;;;;;;5087446;28;20055;-67
2023/01/26 03:05:04;;;;;;;11.32;5.65;;;1.80;84.70;;;;;;5070323;28;20052;-69
2023/01/26 03:07:31;;;;;;;12.00;5.90;;;1.70;84.70;;;;;;5070883;28;20076;-62
2023/01/26 03:09:58;;;;;;;14.18;6.25;;;1.70;84.80;;;;;;5064296;28;20052;-60
2023/01/26 03:12:26;;;;;;;10.90;5.25;;;1.70;84.80;;;;;;5087519;28;20090;-72
2023/01/26 03:15:33;;;;;;;12.98;5.78;;;1.70;84.80;;;;;;5088918;28;20048;-72
2023/01/26 03:17:45;;;;;;;11.05;5.03;;;1.70;84.80;;;;;;5087717;28;20072;-70
2023/01/26 03:28:30;;;;;;;11.27;4.82;;;1.70;84.10;;;;;;5067635;28;20455;-73
2023/01/26 03:30:58;;;;;;;10.10;4.38;;;1.70;84.30;;;;;;5069432;28;20059;-60
2023/01/26 03:33:26;;;;;;;10.02;4.97;;;1.70;84.60;;;;;;5059216;28;20059;-60
2023/01/26 03:35:54;;;;;;;10.98;4.80;;;1.70;84.50;;;;;;5088434;28;20483;-59
2023/01/26 03:38:22;;;;;;;10.40;4.82;;;1.70;84.50;;;;;;5059846;28;20052;-60
2023/01/26 03:57:28;;;;;;;8.13;3.63;;;1.70;84.50;;;;;;5085986;28;20067;-60
2023/01/26 03:59:55;;;;;;;8.40;3.80;;;1.70;84.40;;;;;;5068334;28;20050;-60
2023/01/26 04:08:21;;;;;;;7.63;3.17;;;1.70;84.10;;;;;;5057236;28;20405;-62
2023/01/26 04:10:49;;;;;;;7.47;3.17;;;1.80;84.10;;;;;;5061301;28;20048;-61
2023/01/26 04:21:41;;;;;;;7.30;2.60;;;1.70;83.90;;;;;;5085366;28;20063;-64
2023/01/26 04:24:16;;;;;;;5.22;2.40;;;1.80;83.80;;;;;;5068924;28;20127;-64
2023/01/26 04:26:44;;;;;;;6.55;2.97;;;1.70;83.80;;;;;;5059781;28;20052;-73
2023/01/26 04:29:16;;;;;;;5.68;2.50;;;1.70;83.70;;;;;;5067037;28;20105;-71
2023/01/26 04:31:44;;;;;;;7.07;2.70;;;1.70;83.50;;;;;;5087746;28;20059;-72
2023/01/26 04:34:17;;;;;;;6.20;2.38;;;1.70;83.20;;;;;;5061656;28;20060;-72
2023/01/26 04:36:45;;;;;;;6.60;2.67;;;1.60;83.40;;;;;;5069176;28;20055;-59
2023/01/26 04:39:14;;;;;;;5.95;2.42;;;1.60;83.40;;;;;;5069275;28;20418;-59
2023/01/26 04:41:45;;;;;;;7.25;2.78;;;1.60;83.60;;;;;;5063853;28;20402;-64
2023/01/26 04:44:15;;;;;;;6.03;2.35;;;1.70;83.50;;;;;;5063465;28;20444;-63
2023/01/26 04:46:43;;;;;;;5.72;2.40;;;1.70;83.20;;;;;;5071163;28;20044;-64
2023/01/26 04:49:13;;;;;;;4.60;2.20;;;1.70;83.30;;;;;;5082919;28;20052;-65
2023/01/26 04:51:39;;;;;;;5.78;2.40;;;1.70;83.10;;;;;;5061968;28;20462;-59
2023/01/26 04:54:08;;;;;;;5.47;2.13;;;1.70;83.00;;;;;;5068356;28;20056;-61
2023/01/26 04:56:38;;;;;;;5.53;2.45;;;1.70;83.10;;;;;;5067281;28;20041;-72
2023/01/26 04:59:07;;;;;;;6.22;2.38;;;1.70;83.10;;;;;;5066812;28;20063;-71
2023/01/26 05:01:36;;;;;;;6.90;2.17;;;1.70;83.00;;;;;;5058177;28;20052;-62
2023/01/26 05:04:06;;;;;;;5.72;2.63;;;1.70;82.70;;;;;;5070650;28;20091;-61
2023/01/26 05:06:33;;;;;;;5.25;2.40;;;1.70;82.60;;;;;;5063681;28;20048;-64
2023/01/26 05:09:00;;;;;;;6.38;2.85;;;1.70;82.50;;;;;;5063228;28;20055;-64
2023/01/26 05:11:31;;;;;;;5.72;2.53;;;1.60;82.60;;;;;;5067832;28;20538;-65
2023/01/26 05:14:16;;;;;;;5.28;2.08;;;1.60;82.70;;;;;;5086523;28;20511;-64
2023/01/26 05:17:01;;;;;;;5.30;2.15;;;1.70;82.60;;;;;;5087100;28;20509;-65
2023/01/26 05:19:48;;;;;;;5.72;2.17;;;1.70;82.50;;;;;;5070696;28;20044;-65
2023/01/26 05:22:31;;;;;;;4.95;2.10;;;1.70;82.50;;;;;;5060346;28;20072;-65
2023/01/26 05:25:16;;;;;;;3.72;1.70;;;1.70;82.40;;;;;;5086552;28;20070;-64
2023/01/26 05:28:02;;;;;;;4.75;2.00;;;1.60;82.30;;;;;;5070860;28;20101;-65
2023/01/26 05:30:29;;;;;;;4.63;2.25;;;1.60;82.20;;;;;;5088208;28;20068;-66
2023/01/26 05:33:01;;;;;;;4.47;2.05;;;1.60;82.10;;;;;;5069889;28;20461;-65
2023/01/26 05:35:28;;;;;;;5.38;2.13;;;1.60;82.00;;;;;;5071102;28;20067;-65
2023/01/26 05:37:55;;;;;;;5.13;2.20;;;1.50;81.90;;;;;;5087073;28;20052;-65
2023/01/26 05:40:22;;;;;;;4.25;1.88;;;1.50;81.90;;;;;;5063572;28;20131;-65
2023/01/26 05:42:50;;;;;;;5.05;1.50;;;1.50;81.80;;;;;;5087947;28;20089;-65
2023/01/26 05:45:41;;;;;;;4.63;2.28;;;1.50;81.90;;;;;;5065922;28;20048;-65
2023/01/26 05:48:09;;;;;;;5.00;1.90;;;1.40;82.00;;;;;;5070226;28;20044;-64
2023/01/26 05:50:36;;;;;;;3.35;1.60;;;1.50;81.90;;;;;;5088815;28;20049;-66
2023/01/26 05:53:19;;;;;;;5.10;2.25;;;1.60;82.00;;;;;;5070088;28;20060;-63
2023/01/26 05:55:47;;;;;;;3.70;1.48;;;1.60;81.70;;;;;;5068948;28;20521;-65
2023/01/26 05:58:14;;;;;;;4.43;1.67;;;1.50;81.60;;;;;;5067328;28;20048;-64
2023/01/26 06:00:42;;;;;;;4.00;1.80;;;1.50;81.60;;;;;;5081829;28;20052;-65
2023/01/26 06:03:18;;;;;;;4.72;1.80;;;1.50;81.40;;;;;;5068293;28;20047;-64
2023/01/26 06:05:53;;;;;;;4.32;1.67;;;1.50;81.20;;;;;;5067753;28;20078;-63
2023/01/26 06:08:28;;;;;;;4.75;1.90;;;1.50;81.40;;;;;;5064750;28;20140;-63
2023/01/26 06:11:15;;;;;;;3.83;1.85;;;1.50;81.40;;;;;;5086978;28;20101;-64
2023/01/26 06:13:58;;;;;;;4.80;2.20;;;1.50;81.30;;;;;;5061720;28;20135;-63
2023/01/26 06:16:28;;;;;;;5.18;2.00;;;1.50;81.20;;;;;;5064659;28;20043;-65
2023/01/26 06:18:56;;;;;;;3.03;1.38;;;1.50;81.20;;;;;;5086165;28;20059;-63
2023/01/26 06:21:23;;;;;;;4.97;2.08;;;1.40;81.20;;;;;;5087958;28;20051;-64
2023/01/26 06:23:50;;;;;;;5.25;2.03;;;1.40;81.00;;;;;;5088138;28;20044;-64
2023/01/26 06:26:17;;;;;;;5.43;1.88;;;1.40;81.10;;;;;;5064047;28;20422;-66
2023/01/26 06:28:44;;;;;;;5.18;2.35;;;1.40;81.10;;;;;;5059644;28;20094;-64
2023/01/26 06:31:11;;;;;;;5.00;1.73;;;1.50;81.10;;;;;;5062989;28;20126;-63
2023/01/26 06:33:40;;;;;;;4.32;1.90;;;1.40;81.00;;;;;;5070381;28;20499;-63
2023/01/26 06:36:10;;;;;;;4.38;1.70;;;1.40;81.00;;;;;;5068148;28;20113;-63
2023/01/26 06:38:38;;;;;;;4.20;1.95;;;1.40;80.80;;;;;;5075579;28;20048;-65
2023/01/26 06:41:07;;;;;;;4.18;2.22;;;1.40;80.80;;;;;;5068659;28;20059;-65
2023/01/26 06:43:35;;;;;;;3.80;2.20;;;1.40;80.90;;;;;;5069235;28;20044;-64
2023/01/26 06:46:04;;;;;;;5.40;2.08;;;1.30;80.70;;;;;;5067744;28;20032;-65
2023/01/26 06:48:35;;;;;;;5.25;2.13;;;1.30;80.80;;;;;;5087442;28;20055;-64
2023/01/26 06:51:43;;;;;;;5.75;2.28;;;1.20;80.90;;;;;;5065307;28;20040;-65
2023/01/26 06:54:12;;;;;;;5.10;2.40;;;1.20;80.90;;;;;;5068384;28;20080;-65
2023/01/26 06:56:59;;;;;;;5.07;2.00;;;1.20;81.00;;;;;;5080648;28;20510;-69
2023/01/26 06:59:40;;;;;;;4.88;2.28;;;1.20;81.10;;;;;;5076973;28;20043;-69
2023/01/26 07:02:17;;;;;;;5.35;2.25;;;1.20;81.10;;;;;;5083508;28;20051;-68
2023/01/26 07:04:43;;;;;;;4.15;2.17;;;1.30;81.30;;;;;;5084666;28;20071;-69
2023/01/26 07:07:12;;;;;;;3.97;2.17;;;1.30;81.10;;;;;;5083698;28;20039;-69
2023/01/26 07:09:38;;;;;;;4.05;2.08;;;1.40;80.80;;;;;;5087385;28;20048;-69
2023/01/26 07:12:05;;;;;;;5.15;2.33;;;1.40;80.70;;;;;;5086296;28;20051;-68
2023/01/26 07:14:33;;;;;;;5.65;2.22;;;1.30;80.70;;;;;;5088271;28;20048;-70
2023/01/26 07:17:01;;;;;;;4.85;2.28;;;1.30;80.70;;;;;;5085775;28;20911;-70
2023/01/26 07:19:29;;;;;;;5.97;2.40;;;1.30;80.60;;;;;;5087959;28;20114;-68
2023/01/26 07:21:56;;;;;;;4.30;1.90;;;1.40;80.60;;;;;;5087053;28;20628;-61
2023/01/26 07:24:24;;;;;;;4.00;1.77;;;1.30;80.50;;;;;;5087046;28;20056;-61
2023/01/26 07:26:51;;;;;;;4.93;2.10;;;1.30;80.80;;;;;;5086579;28;20048;-65
2023/01/26 07:29:18;;;;;;;4.13;1.85;;;1.30;80.80;;;;;;5085855;28;20040;-64
2023/01/26 07:31:45;;;;;;;4.88;2.20;;;1.30;80.70;;;;;;5086475;28;20056;-60
2023/01/26 07:34:12;;;;;;;4.53;2.10;;;1.40;80.70;;;;;;5086637;28;20041;-60
2023/01/26 07:36:40;;;;;;;6.05;2.78;;;1.40;80.80;;;;;;5086863;28;20158;-65
2023/01/26 07:39:07;;;;;;;3.70;2.00;;;1.30;80.70;;;;;;5068028;28;20094;-64
2023/01/26 07:41:35;;;;;;;6.18;2.35;;;1.30;80.70;;;;;;5085822;28;20059;-59
2023/01/26 07:44:12;;;;;;;4.20;2.05;;;1.30;80.60;;;;;;5082573;28;20041;-58
2023/01/26 07:46:40;;;;;;;4.97;2.35;;;1.30;80.60;;;;;;5085632;28;20051;-59
2023/01/26 07:49:07;;;;;;;5.28;2.40;;;1.30;80.40;;;;;;5085689;28;20071;-60
2023/01/26 07:51:34;;;;;;;5.88;2.22;;;1.30;80.50;;;;;;5083098;28;20044;-58
2023/01/26 07:54:01;;;;;;;5.43;2.05;;;1.30;80.50;;;;;;5085926;28;20044;-60
2023/01/26 07:56:28;;;;;;;5.32;2.30;;;1.30;80.50;;;;;;5086646;28;20040;-63
2023/01/26 07:58:57;;;;;;;5.50;2.45;;;1.30;80.40;;;;;;5085897;28;20052;-65
2023/01/26 08:01:24;;;;;;;5.55;2.72;;;1.30;80.60;;;;;;5078299;28;20047;-64
2023/01/26 08:03:52;;;;;;;5.75;2.60;;;1.30;80.60;;;;;;5081338;28;20036;-64
2023/01/26 08:06:20;;;;;;;5.72;2.95;;;1.30;80.30;;;;;;5083543;28;20120;-65
2023/01/26 08:08:49;;;;;;;5.43;2.67;;;1.30;80.40;;;;;;5084211;28;20052;-65
2023/01/26 08:11:18;;;;;;;6.10;2.97;;;1.30;80.30;;;;;;5083398;28;20059;-64
2023/01/26 08:13:45;;;;;;;4.88;2.35;;;1.30;80.40;;;;;;5088423;28;20127;-65
2023/01/26 08:16:14;;;;;;;5.75;2.65;;;1.30;80.40;;;;;;5086779;28;20047;-65
2023/01/26 08:18:42;;;;;;;4.93;2.53;;;1.30;80.30;;;;;;5083754;28;20048;-64
2023/01/26 08:21:08;;;;;;;6.85;2.80;;;1.30;80.20;;;;;;5085017;28;20048;-64
2023/01/26 08:23:36;;;;;;;6.28;2.70;;;1.30;80.20;;;;;;5086231;28;20063;-64
2023/01/26 08:26:03;;;;;;;5.65;2.95;;;1.30;80.30;;;;;;5084476;28;20044;-66
2023/01/26 08:28:30;;;;;;;6.60;2.90;;;1.30;80.00;;;;;;5085505;28;20457;-66
2023/01/26 08:31:03;;;;;;;5.72;2.90;;;1.30;80.10;;;;;;5084026;28;20044;-59
2023/01/26 08:33:32;;;;;;;5.70;2.53;;;1.30;80.10;;;;;;5084503;28;20049;-60
2023/01/26 08:36:01;;;;;;;5.32;2.50;;;1.30;80.10;;;;;;5086702;28;20422;-59
2023/01/26 08:38:30;;;;;;;5.35;2.50;;;1.30;79.90;;;;;;5086694;28;20056;-60
2023/01/26 08:40:56;;;;;;;6.13;2.92;;;1.20;80.00;;;;;;5089736;28;20044;-59
2023/01/26 08:43:27;;;;;;;7.85;3.10;;;1.30;80.00;;;;;;5090557;28;20105;-59
2023/01/26 08:45:54;;;;;;;6.78;2.90;;;1.20;79.90;;;;;;5089698;28;20051;-60
2023/01/26 08:48:21;;;;;;;6.22;2.85;;;1.30;79.90;;;;;;5090219;28;20044;-60
2023/01/26 08:50:53;;;;;;;6.65;3.13;;;1.30;79.90;;;;;;5088470;28;20052;-60
2023/01/26 08:53:20;;;;;;;5.40;2.92;;;1.20;79.80;;;;;;5088016;28;20048;-60
2023/01/26 08:55:47;;;;;;;7.80;3.50;;;1.30;79.90;;;;;;5086371;28;20044;-60
2023/01/26 08:58:14;;;;;;;6.30;3.05;;;1.20;79.90;;;;;;5087779;28;20521;-59
2023/01/26 09:00:41;;;;;;;6.90;3.22;;;1.20;79.60;;;;;;5085609;28;20039;-62
2023/01/26 09:03:08;;;;;;;7.15;3.15;;;1.20;79.80;;;;;;5086077;28;20044;-61
2023/01/26 09:05:38;;;;;;;6.57;3.33;;;1.20;79.70;;;;;;5087802;28;20048;-61
2023/01/26 09:08:08;;;;;;;6.13;3.00;;;1.20;79.70;;;;;;5088554;28;20066;-62
2023/01/26 09:10:37;;;;;;;;;;;1.20;79.40;;;;;;5085571;28;20047;-61
2023/01/26 09:13:03;;;;;;;7.18;2.88;;;1.30;79.60;;;;;;5088195;28;19928;-62
2023/01/26 09:15:31;;;;;;;7.05;3.25;;;1.30;79.50;;;;;;5090303;28;20102;-63
2023/01/26 09:17:58;;;;;;;8.15;3.50;;;1.30;79.60;;;;;;5089064;28;20063;-62
2023/01/26 09:20:24;;;;;;;7.80;3.72;;;1.30;79.50;;;;;;5087874;28;20114;-62
2023/01/26 09:22:51;;;;;;;8.02;3.72;;;1.30;79.50;;;;;;5089580;28;20056;-62
2023/01/26 09:25:19;;;;;;;7.20;2.90;;;1.30;79.40;;;;;;5085649;28;20048;-62
2023/01/26 09:27:46;;;;;;;6.68;3.55;;;1.30;79.50;;;;;;5085629;28;20056;-62
2023/01/26 09:30:14;;;;;;;8.85;3.63;;;1.20;79.40;;;;;;5086709;28;20490;-61
2023/01/26 09:32:41;;;;;;;6.82;3.42;;;1.20;79.40;;;;;;5088076;28;20047;-62
2023/01/26 09:35:10;;;;;;;7.35;3.20;;;1.20;79.40;;;;;;5087168;28;20071;-62
2023/01/26 09:37:38;;;;;;;8.23;3.75;;;1.30;79.40;;;;;;5086028;28;20063;-60
2023/01/26 09:40:06;;;;;;;8.15;4.07;;;1.30;79.30;;;;;;5087649;28;20494;-61
2023/01/26 09:42:44;;;;;;;8.18;4.10;;;1.30;79.20;;;;;;5087495;28;20054;-60
2023/01/26 09:45:23;;;;;;;7.85;4.03;;;1.30;79.10;;;;;;5087169;28;20064;-61
2023/01/26 09:48:09;;;;;;;8.38;3.85;;;1.30;79.10;;;;;;5081520;28;20072;-61
2023/01/26 09:50:42;;;;;;;9.20;4.38;;;1.30;78.80;;;;;;5086954;28;20044;-61
2023/01/26 09:53:15;;;;;;;8.93;3.95;;;1.30;79.20;;;;;;5086663;28;20125;-62
2023/01/26 09:55:43;;;;;;;8.63;4.05;;;1.30;79.20;;;;;;5084749;28;20367;-65
2023/01/26 09:58:18;;;;;;;10.38;4.50;;;1.30;78.70;;;;;;5086212;28;20044;-65
2023/01/26 10:00:48;;;;;;;8.25;3.92;;;1.30;78.70;;;;;;5086274;28;20506;-65
2023/01/26 10:03:26;;;;;;;7.45;4.18;;;1.30;78.30;;;;;;5085127;28;20044;-65
2023/01/26 10:05:59;;;;;;;6.35;3.40;;;1.30;78.40;;;;;;5084274;28;20068;-65
2023/01/26 10:08:44;;;;;;;6.85;3.20;;;1.30;78.60;;;;;;5086647;28;20047;-65
2023/01/26 10:11:17;;;;;;;6.85;3.40;;;1.40;78.30;;;;;;5085730;28;20398;-65
2023/01/26 10:13:51;;;;;;;8.45;3.88;;;1.40;78.40;;;;;;5086596;28;20048;-66
2023/01/26 10:16:18;;;;;;;7.85;3.85;;;1.40;78.10;;;;;;5086090;28;20036;-73
2023/01/26 10:18:53;;;;;;;9.35;4.00;;;1.40;77.80;;;;;;5086058;28;20051;-72
2023/01/26 10:21:23;;;;;;;11.00;4.50;;;1.30;77.90;;;;;;5087246;28;20490;-61
2023/01/26 10:23:52;;;;;;;8.73;4.68;;;1.30;77.80;;;;;;5088666;28;20060;-61
2023/01/26 10:26:20;;;;;;;9.00;3.75;;;1.30;77.60;;;;;;5088299;28;20044;-70
2023/01/26 10:28:50;;;;;;;7.78;3.78;;;1.30;77.70;;;;;;5085964;28;20048;-70
2023/01/26 10:31:20;;;;;;;7.22;3.47;;;1.40;77.90;;;;;;5087052;28;20456;-61
2023/01/26 10:33:55;;;;;;;8.15;4.10;;;1.40;78.00;;;;;;5086587;28;20050;-61
2023/01/26 10:36:22;;;;;;;8.15;3.83;;;1.40;77.90;;;;;;5086565;28;20584;-66
2023/01/26 10:38:50;;;;;;;7.43;3.42;;;1.40;77.40;;;;;;5084873;28;20540;-66
2023/01/26 10:41:26;;;;;;;8.02;4.53;;;1.50;77.60;;;;;;5088777;28;20052;-73
2023/01/26 10:43:57;;;;;;;8.90;4.35;;;1.50;77.80;;;;;;5089451;28;20101;-71
2023/01/26 10:46:27;;;;;;;8.93;4.37;;;1.50;77.40;;;;;;5083639;28;20048;-74
2023/01/26 10:48:55;;;;;;;10.48;4.80;;;1.50;77.70;;;;;;5086663;28;20452;-73
2023/01/26 10:51:26;;;;;;;12.27;4.90;;;1.50;77.50;;;;;;5087903;28;20048;-59
2023/01/26 10:54:21;;;;;;;9.40;4.63;;;1.40;77.60;;;;;;5085946;28;20117;-60
2023/01/26 10:56:51;;;;;;;8.68;4.40;;;1.40;77.70;;;;;;5088276;28;20059;-70
2023/01/26 10:59:29;;;;;;;9.65;4.90;;;1.40;77.40;;;;;;5085226;28;20052;-70
2023/01/26 11:01:59;;;;;;;9.52;5.13;;;1.40;77.60;;;;;;5084734;28;20052;-70
2023/01/26 11:04:27;;;;;;;10.55;5.32;;;1.50;77.40;;;;;;5082958;28;20051;-70
2023/01/26 11:06:54;;;;;;;8.82;4.55;;;1.50;77.40;;;;;;5084758;28;20058;-69
2023/01/26 11:09:27;;;;;;;10.00;4.82;;;1.50;77.40;;;;;;5087679;28;20044;-69
2023/01/26 11:11:59;;;;;;;9.05;4.53;;;1.60;77.20;;;;;;5083540;28;20040;-71
2023/01/26 11:14:28;;;;;;;9.90;4.95;;;1.60;76.80;;;;;;5086867;28;20055;-70
2023/01/26 11:17:01;;;;;;;10.27;5.18;;;1.50;76.60;;;;;;5084835;28;20071;-69
2023/01/26 11:19:46;;;;;;;9.55;5.15;;;1.60;76.90;;;;;;5089412;28;20129;-69
2023/01/26 11:22:18;;;;;;;9.88;4.93;;;1.60;76.50;;;;;;5086128;28;20525;-70
2023/01/26 11:24:53;;;;;;;10.02;4.70;;;1.60;76.70;;;;;;5087625;28;20056;-70
2023/01/26 11:27:33;;;;;;;9.80;5.20;;;1.60;76.70;;;;;;5084462;28;20044;-69
2023/01/26 11:30:23;;;;;;;9.98;5.28;;;1.70;76.60;;;;;;5086739;28;20047;-69
2023/01/26 11:32:57;;;;;;;11.25;5.60;;;1.60;76.30;;;;;;5081274;28;20044;-69
2023/01/26 11:35:39;;;;;;;10.32;5.47;;;1.60;76.60;;;;;;5076835;28;20062;-68
2023/01/26 11:38:22;;;;;;;11.57;5.40;;;1.60;77.00;;;;;;5076452;28;20079;-69
2023/01/26 11:41:00;;;;;;;10.38;5.47;;;1.60;76.50;;;;;;5088683;28;20130;-62
2023/01/26 11:43:49;;;;;;;10.60;5.20;;;1.60;76.80;;;;;;5083946;28;20044;-61
2023/01/26 11:46:42;;;;;;;9.52;5.50;;;1.60;77.30;;;;;;5085072;28;20411;-63
2023/01/26 11:49:23;;;;;;;9.38;5.07;;;1.60;77.10;;;;;;5080107;28;20043;-62
2023/01/26 11:51:56;;;;;;;;;;;1.60;76.70;;;;;;5083865;28;20063;-68
2023/01/26 11:54:34;;;;;;;10.65;5.10;;;1.60;76.90;;;;;;5081557;28;19932;-67
2023/01/26 11:57:13;;;;;;;10.73;5.35;;;1.60;76.70;;;;;;5084453;28;20089;-62
2023/01/26 11:59:46;;;;;;;9.40;5.07;;;1.70;76.50;;;;;;5084164;28;20051;-61
2023/01/26 12:02:27;;;;;;;9.07;4.65;;;1.70;76.40;;;;;;5086635;28;20051;-72
2023/01/26 12:04:54;;;;;;;9.60;5.07;;;1.70;76.60;;;;;;5082751;28;20487;-71
2023/01/26 12:07:26;;;;;;;8.55;4.55;;;1.70;76.40;;;;;;5082742;28;20080;-62
2023/01/26 12:09:53;;;;;;;9.43;5.05;;;1.70;76.30;;;;;;5085121;28;20040;-62
2023/01/26 12:12:29;;;;;;;9.32;4.68;;;1.70;76.50;;;;;;5085385;28;20048;-65
2023/01/26 12:15:03;;;;;;;10.30;5.05;;;1.70;76.30;;;;;;5083777;28;20048;-66
2023/01/26 12:17:44;;;;;;;10.85;5.22;;;1.70;76.70;;;;;;5085802;28;20068;-66
2023/01/26 12:20:27;;;;;;;11.50;5.45;;;1.70;76.20;;;;;;5086114;28;20040;-66
2023/01/26 12:23:00;;;;;;;10.88;5.30;;;1.70;76.20;;;;;;5079103;28;20049;-65
2023/01/26 12:25:32;;;;;;;12.68;5.95;;;1.70;76.40;;;;;;5085934;28;20446;-61
2023/01/26 12:28:06;;;;;;;10.02;5.30;;;1.70;76.60;;;;;;5074248;28;20495;-61
2023/01/26 12:30:45;;;;;;;13.45;6.55;;;1.70;76.80;;;;;;5081920;28;20044;-61
2023/01/26 12:33:14;;;;;;;13.57;6.68;;;1.70;76.50;;;;;;5085683;28;20055;-61
2023/01/26 12:36:19;;;;;;;13.93;7.15;;;1.70;77.10;;;;;;5086265;28;20056;-62
2023/01/26 12:39:11;;;;;;;14.23;6.55;;;1.70;77.20;;;;;;5070774;28;20499;-61
2023/01/26 12:42:08;;;;;;;12.65;6.43;;;1.70;76.80;;;;;;5085165;28;20056;-62
2023/01/26 12:44:39;;;;;;;14.45;6.32;;;1.70;77.00;;;;;;5076625;28;20447;-62
2023/01/26 12:47:13;;;;;;;13.37;6.80;;;1.80;77.00;;;;;;5084978;28;20048;-65
2023/01/26 12:49:47;;;;;;;12.05;6.22;;;1.80;76.80;;;;;;5086588;28;20406;-65
2023/01/26 12:52:20;;;;;;;11.95;5.47;;;1.80;76.70;;;;;;5085682;28;20498;-66
2023/01/26 12:54:51;;;;;;;12.18;6.28;;;1.80;76.80;;;;;;5086099;28;20047;-63
2023/01/26 12:57:21;;;;;;;10.90;5.72;;;1.70;76.80;;;;;;5077546;28;20068;-64
2023/01/26 12:59:48;;;;;;;12.68;6.05;;;1.80;76.10;;;;;;5079594;28;20433;-64
2023/01/26 13:02:25;;;;;;;13.93;5.72;;;1.80;75.90;;;;;;5085185;28;20082;-64
2023/01/26 13:04:54;;;;;;;11.00;5.60;;;1.80;76.20;;;;;;5082693;28;20047;-64
2023/01/26 13:07:30;;;;;;;11.82;6.10;;;1.80;76.10;;;;;;5086537;28;20036;-64
2023/01/26 13:10:28;;;;;;;11.38;5.70;;;1.80;75.60;;;;;;5084269;28;20056;-64
2023/01/26 13:12:58;;;;;;;9.48;4.75;;;1.80;75.80;;;;;;5039684;28;20044;-67
2023/01/26 13:15:27;;;;;;;11.03;5.50;;;1.90;75.20;;;;;;5078952;28;20052;-66
2023/01/26 13:17:57;;;;;;;14.40;6.43;;;1.90;74.80;;;;;;5079725;28;20281;-66
2023/01/26 13:20:43;;;;;;;12.38;5.68;;;1.90;75.20;;;;;;5083189;28;20052;-66
2023/01/26 13:23:41;;;;;;;10.93;5.68;;;2.00;74.50;;;;;;5086791;28;20047;-65
2023/01/26 13:26:17;;;;;;;11.55;5.35;;;2.00;74.50;;;;;;5089125;28;20055;-62
2023/01/26 13:28:45;;;;;;;13.02;5.93;;;2.00;74.20;;;;;;5087713;28;20052;-59
2023/01/26 13:31:13;;;;;;;9.80;5.47;;;2.00;74.20;;;;;;5087155;28;20043;-60
2023/01/26 13:33:41;;;;;;;13.00;5.85;;;2.00;74.50;;;;;;5088447;28;20047;-60
2023/01/26 13:36:17;;;;;;;13.18;5.95;;;2.00;74.80;;;;;;5085672;28;20048;-60
2023/01/26 13:38:47;;;;;;;11.07;5.15;;;2.00;75.00;;;;;;5087160;28;20056;-61
2023/01/26 13:41:19;;;;;;;11.73;5.78;;;2.00;74.40;;;;;;5081351;28;20050;-62
2023/01/26 13:43:52;;;;;;;11.93;5.47;;;2.00;74.90;;;;;;5088527;28;20044;-60
2023/01/26 13:46:23;;;;;;;11.43;5.53;;;2.00;74.60;;;;;;5087328;28;20131;-61
2023/01/26 13:48:51;;;;;;;10.95;5.07;;;2.00;75.20;;;;;;5086611;28;20048;-61
2023/01/26 13:51:22;;;;;;;11.75;5.60;;;2.00;74.60;;;;;;5086393;28;20876;-60
2023/01/26 13:53:58;;;;;;;13.75;5.85;;;2.00;74.40;;;;;;5085963;28;20044;-62
2023/01/26 13:56:28;;;;;;;13.30;6.22;;;1.90;74.70;;;;;;5084717;28;20513;-61
2023/01/26 13:59:04;;;;;;;11.65;5.20;;;1.80;74.50;;;;;;5084402;28;20101;-61
2023/01/26 14:01:31;;;;;;;10.25;5.53;;;1.80;75.10;;;;;;5088234;28;20047;-62